Time;durP1;ratioP1;P1;durP2;ratioP2;P2;SDS_P1;SDS_P2;PMS_P1;PMS_P2;Temp;Humidity;BMP_temperature;BMP_pressure;BME280_temperature;BME280_humidity;BME280_pressure;Samples;Min_cycle;Max_cycle;Signal;HPM_P1;HPM_P2
2022/04/27 00:00:08;;;;;;;321.90;140.43;;;;;;;17.26;77.95;99618.53;342787;28;1335;-75
2022/04/27 00:00:19;;;;;;;323.80;140.27;;;;;;;17.26;77.67;99619.38;341801;28;1292;-76
2022/04/27 00:00:29;;;;;;;324.23;141.45;;;;;;;17.25;77.78;99606.25;340597;28;1197;-76
2022/04/27 00:00:40;;;;;;;326.47;142.70;;;;;;;17.25;77.61;99612.41;340927;28;813;-76
2022/04/27 00:00:50;;;;;;;321.25;141.35;;;;;;;17.27;77.83;99614.94;342880;28;1194;-77
2022/04/27 00:01:00;;;;;;;316.20;139.47;;;;;;;17.27;77.76;99617.59;342886;28;3667;-76
2022/04/27 00:01:11;;;;;;;317.45;142.15;;;;;;;17.29;77.67;99607.75;339907;28;4999;-76
2022/04/27 00:01:22;;;;;;;317.38;142.27;;;;;;;17.24;77.77;99602.78;339346;28;893;-76
2022/04/27 00:01:32;;;;;;;326.33;147.83;;;;;;;17.23;77.79;99608.16;339101;28;1328;-76
2022/04/27 00:01:43;;;;;;;326.75;147.90;;;;;;;17.23;78.07;99610.81;340164;28;3824;-75
2022/04/27 00:01:53;;;;;;;327.70;149.27;;;;;;;17.22;78.15;99615.25;341521;28;836;-75
2022/04/27 00:02:04;;;;;;;323.65;144.73;;;;;;;17.19;77.87;99607.53;342038;28;1221;-76
2022/04/27 00:02:14;;;;;;;324.30;143.23;;;;;;;17.20;78.05;99605.72;340642;28;764;-76
2022/04/27 00:02:25;;;;;;;321.00;140.30;;;;;;;17.23;77.87;99602.88;342004;28;940;-76
2022/04/27 00:02:35;;;;;;;320.17;140.37;;;;;;;17.21;78.00;99610.06;344577;28;1210;-75
2022/04/27 00:02:45;;;;;;;320.98;141.27;;;;;;;17.23;78.12;99613.47;343257;28;891;-76
2022/04/27 00:02:56;;;;;;;322.83;144.33;;;;;;;17.24;77.92;99604.56;344170;28;1882;-76
2022/04/27 00:03:07;;;;;;;324.08;146.70;;;;;;;17.23;77.81;99614.31;343240;28;1426;-76
2022/04/27 00:03:17;;;;;;;322.63;145.63;;;;;;;17.25;78.00;99611.56;344173;28;1635;-75
2022/04/27 00:03:27;;;;;;;323.17;144.50;;;;;;;17.22;78.03;99606.47;344154;28;1092;-76
2022/04/27 00:03:38;;;;;;;323.47;142.80;;;;;;;17.21;78.04;99600.34;344520;28;1285;-76
2022/04/27 00:03:48;;;;;;;323.13;142.05;;;;;;;17.20;78.21;99600.44;341680;28;1276;-76
2022/04/27 00:03:59;;;;;;;323.73;143.93;;;;;;;17.19;78.15;99599.59;343205;28;1457;-76
2022/04/27 00:04:09;;;;;;;324.53;144.17;;;;;;;17.22;78.34;99606.47;342578;28;1819;-75
2022/04/27 00:04:19;;;;;;;325.65;143.98;;;;;;;17.21;78.21;99600.34;343098;28;1191;-76
2022/04/27 00:04:30;;;;;;;326.30;142.37;;;;;;;17.16;78.08;99601.59;343455;28;733;-75
2022/04/27 00:04:40;;;;;;;324.42;140.07;;;;;;;17.12;78.18;99600.09;341968;28;1067;-75
2022/04/27 00:04:51;;;;;;;322.43;139.20;;;;;;;17.13;78.30;99599.16;340418;28;865;-76
2022/04/27 00:05:01;;;;;;;320.65;139.65;;;;;;;17.14;78.45;99604.34;343561;28;1465;-76
2022/04/27 00:05:12;;;;;;;319.17;141.10;;;;;;;17.15;78.35;99605.19;344609;28;1168;-75
2022/04/27 00:05:23;;;;;;;320.30;140.07;;;;;;;17.16;78.32;99601.59;342062;28;861;-76
2022/04/27 00:05:34;;;;;;;318.30;136.88;;;;;;;17.16;78.08;99610.38;344715;28;1230;-76
2022/04/27 00:05:44;;;;;;;318.88;138.73;;;;;;;17.17;78.31;99598.00;344645;28;1219;-76
2022/04/27 00:05:54;;;;;;;322.20;142.33;;;;;;;17.17;78.50;99603.28;342292;28;912;-76
2022/04/27 00:06:05;;;;;;;324.25;144.20;;;;;;;17.15;78.11;99594.63;342415;28;1369;-76
2022/04/27 00:06:15;;;;;;;325.50;145.67;;;;;;;17.13;78.39;99601.81;343009;28;1278;-76
2022/04/27 00:06:26;;;;;;;325.33;147.00;;;;;;;17.11;78.26;99598.41;341581;28;1219;-76
2022/04/27 00:06:36;;;;;;;326.73;149.50;;;;;;;17.10;78.27;99602.84;339741;28;1286;-76
2022/04/27 00:06:46;;;;;;;326.53;146.73;;;;;;;17.11;78.19;99609.00;343021;28;1237;-76
2022/04/27 00:06:57;;;;;;;325.20;144.15;;;;;;;17.08;78.42;99598.63;342018;28;900;-76
2022/04/27 00:07:07;;;;;;;323.93;142.50;;;;;;;17.08;78.51;99603.91;344217;28;1167;-76
2022/04/27 00:07:18;;;;;;;322.63;141.65;;;;;;;17.10;78.31;99605.50;343169;28;781;-75
2022/04/27 00:07:28;;;;;;;321.03;140.93;;;;;;;17.11;78.54;99603.72;341760;28;1721;-76
2022/04/27 00:07:39;;;;;;;321.47;140.17;;;;;;;17.11;78.51;99598.41;343849;28;1743;-75
2022/04/27 00:07:50;;;;;;;321.55;140.90;;;;;;;17.11;78.29;99604.56;342767;28;1822;-76
2022/04/27 00:08:00;;;;;;;325.07;143.40;;;;;;;17.12;78.37;99602.75;340513;28;1288;-76
2022/04/27 00:08:10;;;;;;;324.25;142.93;;;;;;;17.12;78.39;99589.53;343087;28;1335;-75
2022/04/27 00:08:21;;;;;;;327.80;144.77;;;;;;;17.13;78.14;99596.50;343123;28;963;-76
2022/04/27 00:08:31;;;;;;;326.50;143.40;;;;;;;17.14;78.32;99598.22;343295;28;1198;-76
2022/04/27 00:08:42;;;;;;;327.33;145.27;;;;;;;17.12;78.16;99600.97;344868;28;1330;-75
2022/04/27 00:08:52;;;;;;;324.75;143.80;;;;;;;17.13;78.18;99597.38;343323;28;809;-75
2022/04/27 00:09:04;;;;;;;323.80;143.63;;;;;;;17.12;78.10;99597.47;343290;28;887;-76
2022/04/27 00:09:14;;;;;;;324.60;141.23;;;;;;;17.12;78.25;99595.66;343243;28;1220;-75
2022/04/27 00:09:24;;;;;;;325.47;142.07;;;;;;;17.13;78.11;99602.66;343060;28;1031;-77
2022/04/27 00:09:35;;;;;;;324.73;139.93;;;;;;;17.11;78.41;99609.00;341635;28;1232;-75
2022/04/27 00:09:45;;;;;;;324.02;140.02;;;;;;;17.13;78.37;99600.00;342138;28;1537;-75
2022/04/27 00:09:56;;;;;;;321.73;138.27;;;;;;;17.12;78.41;99602.75;344629;28;1735;-75
2022/04/27 00:10:06;;;;;;;322.80;140.75;;;;;;;17.11;78.57;99599.25;341750;28;1294;-76
2022/04/27 00:10:20;;;;;;;322.67;142.00;;;;;;;17.10;78.56;99596.72;340637;28;4740;-75
2022/04/27 00:10:30;;;;;;;321.05;141.05;;;;;;;17.08;78.48;99603.91;343215;28;1273;-75
2022/04/27 00:10:41;;;;;;;323.92;141.38;;;;;;;17.07;78.57;99597.78;343018;28;1338;-75
2022/04/27 00:10:51;;;;;;;325.63;139.63;;;;;;;17.09;78.69;99605.59;345418;28;3021;-76
2022/04/27 00:11:02;;;;;;;329.58;140.32;;;;;;;17.04;78.59;99602.41;342435;28;1092;-75
2022/04/27 00:11:12;;;;;;;325.47;140.57;;;;;;;17.03;78.75;99600.72;342044;28;801;-74
2022/04/27 00:11:23;;;;;;;325.98;142.65;;;;;;;17.01;78.89;99599.97;340633;28;1376;-75
2022/04/27 00:11:33;;;;;;;326.10;144.90;;;;;;;16.99;78.86;99604.53;340059;28;1027;-75
2022/04/27 00:11:43;;;;;;;327.50;144.77;;;;;;;17.01;79.04;99605.28;341517;28;1852;-76
2022/04/27 00:11:56;;;;;;;325.38;144.18;;;;;;;16.99;78.88;99604.53;342695;28;1643;-76
2022/04/27 00:12:07;;;;;;;323.27;140.73;;;;;;;16.99;78.76;99605.38;343830;28;1362;-76
2022/04/27 00:12:17;;;;;;;324.23;141.60;;;;;;;17.00;79.18;99608.88;345055;28;1207;-76
2022/04/27 00:12:28;;;;;;;323.13;140.18;;;;;;;17.01;78.99;99607.91;343521;28;1860;-76
2022/04/27 00:12:38;;;;;;;324.07;142.27;;;;;;;16.99;79.12;99601.88;341839;28;1665;-76
2022/04/27 00:12:49;;;;;;;322.25;140.05;;;;;;;17.01;79.07;99608.75;343398;28;833;-76
2022/04/27 00:12:59;;;;;;;321.07;140.77;;;;;;;16.99;78.91;99601.88;344333;28;1239;-76
2022/04/27 00:13:18;;;;;;;321.30;140.90;;;;;;;17.01;79.01;99607.91;342878;28;838;-76
2022/04/27 00:13:29;;;;;;;324.17;140.95;;;;;;;17.01;78.81;99600.84;343395;28;1062;-76
2022/04/27 00:13:39;;;;;;;322.83;140.23;;;;;;;16.99;78.78;99610.66;341878;28;790;-76
2022/04/27 00:13:49;;;;;;;320.92;140.10;;;;;;;17.01;78.79;99607.91;341909;28;1517;-77
2022/04/27 00:14:00;;;;;;;320.40;138.50;;;;;;;17.02;79.02;99612.25;343365;28;750;-76
2022/04/27 00:14:11;;;;;;;319.60;136.88;;;;;;;17.02;78.93;99604.31;343328;28;927;-76
2022/04/27 00:14:22;;;;;;;323.15;137.73;;;;;;;17.02;78.72;99599.03;342859;28;1343;-75
2022/04/27 00:14:33;;;;;;;326.42;142.10;;;;;;;17.03;78.96;99603.38;344581;28;793;-76
2022/04/27 00:14:43;;;;;;;325.80;142.80;;;;;;;17.01;78.80;99597.34;344524;28;1306;-76
2022/04/27 00:14:54;;;;;;;324.93;143.30;;;;;;;16.99;79.10;99607.16;341675;28;1165;-75
2022/04/27 00:15:05;;;;;;;324.10;142.25;;;;;;;16.99;79.02;99609.81;340381;28;1337;-76
2022/04/27 00:15:15;;;;;;;323.63;142.73;;;;;;;16.96;79.10;99601.13;343193;28;1355;-76
2022/04/27 00:15:28;;;;;;;320.30;140.55;;;;;;;16.95;79.24;99603.88;340352;28;784;-76
2022/04/27 00:15:38;;;;;;;320.88;140.27;;;;;;;16.95;79.16;99601.25;340075;28;1459;-75
2022/04/27 00:15:48;;;;;;;321.67;139.17;;;;;;;16.95;79.25;99604.72;342933;28;1289;-75
2022/04/27 00:15:59;;;;;;;322.30;139.95;;;;;;;16.96;79.42;99606.44;341974;28;913;-76
2022/04/27 00:16:09;;;;;;;324.83;142.13;;;;;;;16.96;79.15;99605.56;340515;28;1181;-76
2022/04/27 00:16:20;;;;;;;324.60;143.65;;;;;;;16.96;79.05;99603.78;341569;28;1219;-76
2022/04/27 00:16:30;;;;;;;322.65;145.40;;;;;;;16.98;79.37;99605.47;341495;28;1213;-76
2022/04/27 00:16:41;;;;;;;322.50;146.23;;;;;;;16.95;79.31;99599.44;341894;28;1311;-77
2022/04/27 00:16:52;;;;;;;323.48;144.57;;;;;;;16.94;79.29;99597.75;340647;28;1312;-76
2022/04/27 00:17:02;;;;;;;323.20;142.13;;;;;;;16.96;78.99;99611.72;341858;28;1180;-77
2022/04/27 00:17:13;;;;;;;321.60;138.52;;;;;;;16.94;79.30;99608.31;341809;28;821;-77
2022/04/27 00:17:23;;;;;;;319.07;137.67;;;;;;;16.92;79.32;99602.28;340474;28;1656;-77
2022/04/27 00:17:34;;;;;;;318.35;138.63;;;;;;;16.89;79.31;99594.59;344285;28;1440;-76
2022/04/27 00:17:44;;;;;;;317.13;139.07;;;;;;;16.92;79.58;99604.94;344468;28;967;-77
2022/04/27 00:17:55;;;;;;;317.60;138.73;;;;;;;16.94;79.30;99603.03;344165;28;1378;-77
2022/04/27 00:18:05;;;;;;;318.30;139.32;;;;;;;16.95;79.18;99604.72;340254;28;1285;-77
2022/04/27 00:18:16;;;;;;;318.67;141.17;;;;;;;16.95;79.15;99603.88;340479;28;1189;-76
2022/04/27 00:18:26;;;;;;;317.23;141.43;;;;;;;16.94;79.18;99599.53;345968;28;1441;-76
2022/04/27 00:18:38;;;;;;;317.00;140.00;;;;;;;16.94;79.42;99600.41;344390;28;1308;-77
2022/04/27 00:18:48;;;;;;;316.02;137.25;;;;;;;16.97;79.41;99596.69;341442;28;1279;-76
2022/04/27 00:18:58;;;;;;;316.17;137.20;;;;;;;16.96;79.34;99600.28;343281;28;1333;-77
2022/04/27 00:19:09;;;;;;;318.10;140.60;;;;;;;16.95;79.50;99599.44;343221;28;1200;-76
2022/04/27 00:19:19;;;;;;;318.15;139.55;;;;;;;16.94;79.34;99597.75;343233;28;1110;-77
2022/04/27 00:19:30;;;;;;;321.17;142.40;;;;;;;16.94;79.28;99603.03;339663;28;3725;-77
2022/04/27 00:19:40;;;;;;;319.38;140.27;;;;;;;16.95;79.45;99593.31;342345;28;3216;-77
2022/04/27 00:19:50;;;;;;;319.80;140.77;;;;;;;16.94;79.56;99595.09;340428;28;853;-76
2022/04/27 00:20:01;;;;;;;317.13;136.00;;;;;;;16.95;79.16;99601.25;344056;28;2767;-76
2022/04/27 00:20:11;;;;;;;318.70;137.20;;;;;;;16.95;79.24;99595.94;341084;28;1221;-76
2022/04/27 00:20:22;;;;;;;317.33;137.07;;;;;;;16.96;79.23;99598.50;340449;28;1319;-77
2022/04/27 00:20:32;;;;;;;317.73;138.60;;;;;;;16.92;79.04;99599.66;341819;28;1191;-77
2022/04/27 00:20:43;;;;;;;316.05;137.52;;;;;;;16.95;79.22;99603.88;343177;28;1315;-75
2022/04/27 00:20:53;;;;;;;315.90;138.77;;;;;;;16.96;79.02;99600.28;344241;28;1378;-76
2022/04/27 00:21:03;;;;;;;315.80;140.33;;;;;;;16.96;79.09;99601.13;342504;28;1221;-76
2022/04/27 00:21:14;;;;;;;317.05;142.23;;;;;;;16.96;78.94;99601.13;342331;28;1203;-76
2022/04/27 00:21:24;;;;;;;320.63;139.80;;;;;;;16.91;78.97;99595.31;342698;28;1179;-76
2022/04/27 00:21:35;;;;;;;321.75;141.40;;;;;;;16.91;78.99;99597.97;343599;28;1347;-76
2022/04/27 00:21:45;;;;;;;322.57;141.43;;;;;;;16.91;79.20;99597.97;344400;28;1258;-76
2022/04/27 00:21:56;;;;;;;319.60;141.02;;;;;;;16.92;79.29;99604.94;345894;28;1563;-76
2022/04/27 00:22:06;;;;;;;322.53;137.87;;;;;;;16.94;79.26;99596.91;343233;28;841;-76
2022/04/27 00:22:16;;;;;;;320.35;135.00;;;;;;;16.91;79.29;99597.97;341359;28;1714;-76
2022/04/27 00:22:27;;;;;;;321.43;136.23;;;;;;;16.95;79.01;99599.44;342440;28;1196;-76
2022/04/27 00:22:37;;;;;;;316.92;137.15;;;;;;;16.99;79.20;99599.25;342128;28;1085;-76
2022/04/27 00:22:48;;;;;;;319.17;140.03;;;;;;;16.98;78.96;99592.25;341858;28;1338;-76
2022/04/27 00:22:58;;;;;;;320.77;139.65;;;;;;;16.98;79.23;99602.84;340316;28;746;-76
2022/04/27 00:23:09;;;;;;;321.57;137.80;;;;;;;16.94;79.11;99592.47;340365;28;1361;-76
2022/04/27 00:23:21;;;;;;;321.83;137.02;;;;;;;16.91;79.27;99597.97;343206;28;1031;-76
2022/04/27 00:23:32;;;;;;;319.75;136.73;;;;;;;16.95;79.42;99603.88;343175;28;1420;-76
2022/04/27 00:23:43;;;;;;;320.30;137.40;;;;;;;16.93;79.30;99601.34;342845;28;1428;-76
2022/04/27 00:23:53;;;;;;;318.90;136.18;;;;;;;16.94;79.53;99604.84;341901;28;1224;-76
2022/04/27 00:24:04;;;;;;;322.50;138.40;;;;;;;16.90;79.32;99598.91;343013;28;1337;-76
2022/04/27 00:24:15;;;;;;;323.75;141.10;;;;;;;16.91;79.45;99597.97;342020;28;813;-76
2022/04/27 00:24:25;;;;;;;322.48;139.63;;;;;;;16.89;79.11;99599.88;343638;28;1009;-76
2022/04/27 00:24:35;;;;;;;320.37;137.37;;;;;;;16.88;79.38;99602.63;342766;28;817;-76
2022/04/27 00:24:46;;;;;;;321.30;136.57;;;;;;;16.88;79.36;99598.19;342914;28;1280;-76
2022/04/27 00:25:00;;;;;;;322.47;138.00;;;;;;;16.89;79.56;99596.41;343092;28;1149;-76
2022/04/27 00:25:10;;;;;;;320.27;137.43;;;;;;;16.90;79.38;99596.25;344314;28;1390;-76
2022/04/27 00:25:23;;;;;;;320.55;137.43;;;;;;;16.91;79.34;99592.66;343107;28;762;-76
2022/04/27 00:25:34;;;;;;;323.15;140.20;;;;;;;16.88;79.18;99598.19;343161;28;892;-76
2022/04/27 00:25:44;;;;;;;320.98;140.95;;;;;;;16.85;79.33;99595.75;343144;28;973;-76
2022/04/27 00:25:56;;;;;;;317.98;138.75;;;;;;;16.85;79.34;99598.41;344786;28;810;-77
2022/04/27 00:26:06;;;;;;;319.55;139.35;;;;;;;16.84;79.33;99606.44;342206;28;979;-76
2022/04/27 00:26:17;;;;;;;319.52;140.07;;;;;;;16.84;79.37;99604.63;340191;28;1345;-76
2022/04/27 00:26:27;;;;;;;321.47;141.37;;;;;;;16.85;79.38;99597.53;340043;28;940;-76
2022/04/27 00:26:37;;;;;;;321.02;141.73;;;;;;;16.85;79.43;99595.75;342542;28;1298;-76
2022/04/27 00:26:48;;;;;;;325.27;144.43;;;;;;;16.87;79.24;99600.94;341424;28;751;-75
2022/04/27 00:26:58;;;;;;;324.47;143.93;;;;;;;16.89;79.28;99601.69;340657;28;1477;-76
2022/04/27 00:27:09;;;;;;;324.67;143.38;;;;;;;16.88;79.46;99595.53;342261;28;925;-76
2022/04/27 00:27:19;;;;;;;323.53;141.80;;;;;;;16.88;79.46;99603.47;341655;28;1181;-76
2022/04/27 00:27:30;;;;;;;325.08;141.35;;;;;;;16.88;79.39;99590.25;341529;28;810;-76
2022/04/27 00:27:40;;;;;;;323.08;140.07;;;;;;;16.91;79.29;99597.97;342881;28;1297;-76
2022/04/27 00:27:51;;;;;;;323.07;139.53;;;;;;;16.90;79.38;99604.19;341350;28;1598;-76
2022/04/27 00:28:01;;;;;;;318.50;137.52;;;;;;;16.90;79.14;99598.06;342922;28;848;-76
2022/04/27 00:28:11;;;;;;;318.77;137.83;;;;;;;16.88;79.15;99592.91;343172;28;1153;-76
2022/04/27 00:28:22;;;;;;;318.70;138.63;;;;;;;16.88;79.28;99594.69;342791;28;1420;-76
2022/04/27 00:28:32;;;;;;;323.30;140.35;;;;;;;16.88;79.25;99598.19;341352;28;3653;-76
2022/04/27 00:28:43;;;;;;;326.37;143.73;;;;;;;16.90;79.30;99596.25;340498;28;4749;-76
2022/04/27 00:28:53;;;;;;;323.67;140.88;;;;;;;16.89;79.21;99593.75;340535;28;3151;-76
2022/04/27 00:29:04;;;;;;;326.20;143.10;;;;;;;16.88;79.22;99603.47;340371;28;1212;-76
2022/04/27 00:29:14;;;;;;;321.92;138.27;;;;;;;16.87;79.09;99595.66;340865;28;3521;-77
2022/04/27 00:29:24;;;;;;;323.17;139.60;;;;;;;16.84;79.48;99596.69;344254;28;1391;-76
2022/04/27 00:29:35;;;;;;;316.63;135.55;;;;;;;16.85;79.12;99598.41;344392;28;851;-75
2022/04/27 00:29:45;;;;;;;318.47;137.07;;;;;;;16.84;78.76;99596.69;344747;28;1490;-76
2022/04/27 00:29:56;;;;;;;317.90;136.83;;;;;;;16.85;79.25;99597.53;342617;28;1364;-76
2022/04/27 00:30:07;;;;;;;317.55;137.45;;;;;;;16.86;79.33;99594.81;343088;28;1626;-75
2022/04/27 00:30:18;;;;;;;315.10;136.20;;;;;;;16.86;79.30;99599.25;343342;28;909;-76
2022/04/27 00:30:28;;;;;;;316.73;138.63;;;;;;;16.85;79.39;99595.75;343076;28;1221;-76
2022/04/27 00:30:38;;;;;;;319.30;138.50;;;;;;;16.86;79.57;99594.81;343897;28;1215;-76
2022/04/27 00:30:49;;;;;;;321.42;139.52;;;;;;;16.88;79.74;99602.63;344355;28;1452;-76
2022/04/27 00:30:59;;;;;;;320.27;139.40;;;;;;;16.84;79.61;99594.06;343079;28;1212;-76
2022/04/27 00:31:10;;;;;;;316.77;140.38;;;;;;;16.86;79.33;99599.25;341738;28;1230;-76
2022/04/27 00:31:20;;;;;;;316.67;139.57;;;;;;;16.83;79.53;99589.72;340187;28;1394;-76
2022/04/27 00:31:31;;;;;;;317.13;140.50;;;;;;;16.85;79.40;99598.41;340152;28;940;-76
2022/04/27 00:31:42;;;;;;;321.95;144.50;;;;;;;16.85;79.50;99595.75;340524;28;909;-76
2022/04/27 00:31:52;;;;;;;321.20;144.93;;;;;;;16.86;79.31;99593.97;340455;28;1604;-76
2022/04/27 00:32:03;;;;;;;320.75;143.45;;;;;;;16.85;79.53;99595.75;342835;28;1308;-75
2022/04/27 00:32:13;;;;;;;321.15;140.48;;;;;;;16.84;79.58;99591.41;343174;28;1368;-76
2022/04/27 00:32:24;;;;;;;321.90;139.77;;;;;;;16.85;79.23;99600.19;343544;28;1386;-76
2022/04/27 00:32:34;;;;;;;322.48;139.25;;;;;;;16.82;79.39;99593.31;342926;28;770;-76
2022/04/27 00:32:45;;;;;;;320.43;138.60;;;;;;;16.82;79.67;99598.59;343066;28;1421;-76
2022/04/27 00:32:55;;;;;;;318.63;137.73;;;;;;;16.81;79.70;99596.91;343317;28;1058;-76
2022/04/27 00:33:06;;;;;;;320.23;138.27;;;;;;;16.80;79.53;99589.91;342914;28;754;-76
2022/04/27 00:33:16;;;;;;;323.17;140.07;;;;;;;16.80;79.55;99595.22;340422;28;1251;-76
2022/04/27 00:33:27;;;;;;;323.43;140.70;;;;;;;16.84;79.44;99596.69;340567;28;888;-76
2022/04/27 00:33:37;;;;;;;320.80;139.30;;;;;;;16.82;79.53;99597.75;343238;28;1650;-76
2022/04/27 00:33:48;;;;;;;318.13;138.03;;;;;;;16.82;79.44;99593.31;343020;28;1485;-76
2022/04/27 00:34:00;;;;;;;316.58;137.77;;;;;;;16.84;79.21;99588.78;344209;28;1230;-76
2022/04/27 00:34:10;;;;;;;318.58;137.82;;;;;;;16.84;79.09;99595.84;344460;28;944;-76
2022/04/27 00:34:21;;;;;;;319.17;137.65;;;;;;;16.84;78.99;99596.69;342921;28;1332;-76
2022/04/27 00:34:31;;;;;;;320.17;139.10;;;;;;;16.84;79.40;99588.78;343103;28;1248;-76
2022/04/27 00:34:42;;;;;;;320.57;139.70;;;;;;;16.83;79.43;99589.72;343170;28;1175;-76
2022/04/27 00:34:52;;;;;;;318.65;138.95;;;;;;;16.84;79.05;99601.13;344389;28;1318;-76
2022/04/27 00:35:05;;;;;;;316.20;137.17;;;;;;;16.84;79.36;99595.84;343262;28;868;-76
2022/04/27 00:35:15;;;;;;;315.70;135.65;;;;;;;16.82;79.28;99587.19;343290;28;833;-75
2022/04/27 00:35:26;;;;;;;319.50;136.70;;;;;;;16.82;79.44;99590.66;343243;28;845;-76
2022/04/27 00:35:37;;;;;;;320.03;138.83;;;;;;;16.81;79.50;99593.41;343170;28;845;-75
2022/04/27 00:35:47;;;;;;;321.80;140.30;;;;;;;16.82;79.35;99590.66;341703;28;1211;-76
2022/04/27 00:35:58;;;;;;;319.58;136.75;;;;;;;16.79;79.38;99590.88;344463;28;1306;-76
2022/04/27 00:36:08;;;;;;;322.17;140.17;;;;;;;16.80;79.11;99589.91;344472;28;1225;-75
2022/04/27 00:36:18;;;;;;;323.02;141.15;;;;;;;16.81;79.05;99591.63;341771;28;852;-75
2022/04/27 00:36:31;;;;;;;325.00;143.77;;;;;;;16.81;79.18;99596.06;342454;28;1192;-75
2022/04/27 00:36:41;;;;;;;321.95;142.98;;;;;;;16.77;79.26;99587.47;342417;28;1463;-76
2022/04/27 00:36:52;;;;;;;320.37;142.10;;;;;;;16.79;79.15;99592.66;342674;28;1203;-76
2022/04/27 00:37:02;;;;;;;318.03;140.30;;;;;;;16.79;79.25;99590.03;341842;28;1195;-76
2022/04/27 00:37:13;;;;;;;316.20;137.57;;;;;;;16.76;79.34;99588.44;342795;28;861;-76
2022/04/27 00:37:23;;;;;;;316.10;137.53;;;;;;;16.77;79.28;99594.56;344480;28;769;-76
2022/04/27 00:37:34;;;;;;;316.87;137.53;;;;;;;16.76;79.39;99593.72;344852;28;607;-76
2022/04/27 00:37:44;;;;;;;317.13;137.73;;;;;;;16.72;79.79;99588.72;343120;28;1150;-76
2022/04/27 00:37:55;;;;;;;318.83;138.33;;;;;;;16.74;79.46;99590.31;340149;28;4072;-76
2022/04/27 00:38:05;;;;;;;316.30;137.35;;;;;;;16.72;79.53;99589.59;341146;28;3071;-76
2022/04/27 00:38:16;;;;;;;319.37;137.87;;;;;;;16.71;79.65;99593.19;340528;28;878;-76
2022/04/27 00:38:26;;;;;;;317.85;138.02;;;;;;;16.71;79.81;99593.19;342931;28;1481;-76
2022/04/27 00:38:36;;;;;;;318.57;139.70;;;;;;;16.71;79.78;99589.69;341719;28;975;-76
2022/04/27 00:38:47;;;;;;;316.98;138.57;;;;;;;16.71;79.91;99587.88;342448;28;1586;-76
2022/04/27 00:38:58;;;;;;;319.07;138.60;;;;;;;16.73;79.84;99586.00;341197;28;1336;-76
2022/04/27 00:39:08;;;;;;;320.23;138.65;;;;;;;16.73;79.74;99588.63;343562;28;1546;-76
2022/04/27 00:39:19;;;;;;;318.48;137.00;;;;;;;16.73;79.45;99588.63;345290;28;1326;-76
2022/04/27 00:39:29;;;;;;;318.90;138.30;;;;;;;16.65;80.49;99580.38;343245;28;1393;-76
2022/04/27 00:39:40;;;;;;;316.65;136.15;;;;;;;16.69;79.94;99592.44;341716;28;928;-76
2022/04/27 00:39:50;;;;;;;318.67;138.10;;;;;;;16.72;79.92;99586.09;342910;28;1229;-76
2022/04/27 00:40:01;;;;;;;319.23;138.52;;;;;;;16.73;79.95;99593.06;341552;28;2002;-76
2022/04/27 00:40:12;;;;;;;322.60;141.97;;;;;;;16.71;79.97;99595.81;341228;28;1298;-76
2022/04/27 00:40:22;;;;;;;319.25;140.52;;;;;;;16.70;79.91;99583.56;340983;28;1028;-77
2022/04/27 00:40:32;;;;;;;319.27;141.00;;;;;;;16.73;80.02;99588.63;341999;28;1181;-76
2022/04/27 00:40:44;;;;;;;317.42;139.68;;;;;;;16.74;79.88;99584.19;340382;28;794;-76
2022/04/27 00:40:54;;;;;;;317.85;140.40;;;;;;;16.72;80.23;99592.22;341869;28;902;-76
2022/04/27 00:41:04;;;;;;;318.48;141.05;;;;;;;16.74;80.20;99594.75;339356;28;1241;-76
2022/04/27 00:41:15;;;;;;;319.73;144.00;;;;;;;16.76;80.22;99591.06;341341;28;1287;-76
2022/04/27 00:41:25;;;;;;;320.30;145.73;;;;;;;16.74;80.16;99585.03;342437;28;1646;-76
2022/04/27 00:41:36;;;;;;;319.47;146.57;;;;;;;16.75;80.00;99585.88;342833;28;714;-75
2022/04/27 00:42:02;;;;;;;319.50;144.03;;;;;;;16.76;79.98;99593.72;341198;28;1200;-76
2022/04/27 00:42:16;;;;;;;314.95;134.00;;;;;;;16.78;79.98;99588.31;343008;28;937;-76
2022/04/27 00:42:27;;;;;;;316.48;132.55;;;;;;;16.74;79.78;99592.97;344644;28;1823;-76
2022/04/27 00:42:37;;;;;;;317.25;135.00;;;;;;;16.71;79.86;99587.88;345215;28;1195;-76
2022/04/27 00:42:48;;;;;;;319.60;136.47;;;;;;;16.72;79.93;99592.22;344800;28;829;-76
2022/04/27 00:42:58;;;;;;;320.52;138.68;;;;;;;16.71;79.63;99589.69;343736;28;1176;-75
2022/04/27 00:43:08;;;;;;;322.37;140.07;;;;;;;16.70;79.69;99593.28;341485;28;1310;-76
2022/04/27 00:43:54;;;;;;;322.15;141.07;;;;;;;16.67;79.76;99586.41;341601;28;889;-77
2022/04/27 00:44:05;;;;;;;319.65;136.15;;;;;;;16.66;79.77;99575.91;338818;29;866;-76
2022/04/27 00:44:15;;;;;;;319.07;135.37;;;;;;;16.66;79.86;99582.06;339160;29;695;-76
2022/04/27 00:44:26;;;;;;;321.05;137.23;;;;;;;16.68;79.79;99590.72;340179;28;1289;-76
2022/04/27 00:44:37;;;;;;;323.15;139.70;;;;;;;16.69;79.85;99591.56;340366;28;1019;-76
2022/04/27 00:44:47;;;;;;;322.57;140.97;;;;;;;16.67;79.96;99583.75;340018;28;1310;-76
2022/04/27 00:44:58;;;;;;;323.05;141.63;;;;;;;16.67;79.87;99589.03;341679;28;1201;-76
2022/04/27 00:45:09;;;;;;;323.00;141.00;;;;;;;16.67;79.98;99583.75;342743;28;1428;-76
2022/04/27 00:45:19;;;;;;;323.33;140.40;;;;;;;16.68;79.91;99585.44;340162;28;1338;-76
2022/04/27 00:45:29;;;;;;;323.17;140.00;;;;;;;16.68;79.91;99587.25;340754;28;916;-76
2022/04/27 00:45:40;;;;;;;324.30;141.17;;;;;;;16.67;80.25;99588.19;343389;28;1213;-76
2022/04/27 00:45:50;;;;;;;325.10;141.60;;;;;;;16.66;80.17;99583.84;340078;28;1146;-76
2022/04/27 00:46:01;;;;;;;324.30;142.40;;;;;;;16.66;80.50;99587.34;339884;28;1428;-76
2022/04/27 00:46:12;;;;;;;320.85;139.57;;;;;;;16.67;80.38;99586.41;338189;28;1630;-76
2022/04/27 00:46:22;;;;;;;319.47;139.50;;;;;;;16.67;80.26;99590.84;338448;28;1231;-76
2022/04/27 00:46:33;;;;;;;321.52;140.88;;;;;;;16.67;80.34;99589.03;338129;28;1398;-76
2022/04/27 00:46:43;;;;;;;322.27;142.40;;;;;;;16.67;80.50;99590.84;339623;28;778;-76
2022/04/27 00:46:54;;;;;;;323.20;141.17;;;;;;;16.65;80.24;99585.66;340182;28;1214;-76
2022/04/27 00:47:04;;;;;;;324.87;139.77;;;;;;;16.67;80.16;99583.75;341316;28;4208;-76
2022/04/27 00:47:15;;;;;;;327.00;141.63;;;;;;;16.67;79.88;99588.19;342876;28;5188;-76
2022/04/27 00:47:28;;;;;;;329.35;143.43;;;;;;;16.64;80.04;99578.66;340438;28;1448;-76
2022/04/27 00:47:38;;;;;;;326.90;141.38;;;;;;;16.64;79.85;99589.25;345075;28;2995;-76
2022/04/27 00:47:49;;;;;;;325.53;140.90;;;;;;;16.66;79.90;99586.50;343616;28;1204;-76
2022/04/27 00:47:59;;;;;;;319.10;135.48;;;;;;;16.63;79.94;99576.94;343012;28;797;-76
2022/04/27 00:48:09;;;;;;;321.57;136.80;;;;;;;16.65;79.99;99590.94;344890;28;1116;-76
2022/04/27 00:48:20;;;;;;;322.67;137.23;;;;;;;16.66;79.98;99587.34;343113;28;1039;-76
2022/04/27 00:48:30;;;;;;;322.87;139.80;;;;;;;16.67;79.95;99591.69;343100;28;1262;-76
2022/04/27 00:48:41;;;;;;;320.97;138.23;;;;;;;16.66;79.67;99582.06;342826;28;880;-76
2022/04/27 00:48:52;;;;;;;320.00;138.80;;;;;;;16.66;79.88;99581.22;343762;28;1346;-76
2022/04/27 00:49:02;;;;;;;320.10;139.00;;;;;;;16.65;80.09;99585.66;342151;28;1212;-76
2022/04/27 00:49:12;;;;;;;318.93;138.40;;;;;;;16.65;79.83;99582.16;341677;28;1014;-76
2022/04/27 00:49:23;;;;;;;318.30;137.05;;;;;;;16.64;79.95;99583.94;345645;28;1228;-76
2022/04/27 00:49:34;;;;;;;318.83;138.10;;;;;;;16.64;79.71;99583.94;345705;28;1227;-76
2022/04/27 00:49:50;;;;;;;319.97;139.77;;;;;;;16.58;79.79;99579.88;342509;28;1840;-76
2022/04/27 00:50:02;;;;;;;318.75;139.30;;;;;;;16.58;80.18;99587.81;342839;28;939;-76